sensor_id;sensor_type;location;lat;lon;timestamp;pressure;altitude;pressure_sealevel;temperature;humidity
45813;BME280;31519;45.408;10.962;2023-01-25T00:01:52;101988.75;;;11.39;93.75
45813;BME280;31519;45.408;10.962;2023-01-25T00:04:21;101984.50;;;11.28;94.90
45813;BME280;31519;45.408;10.962;2023-01-25T00:06:50;101982.13;;;11.32;95.65
45813;BME280;31519;45.408;10.962;2023-01-25T00:09:20;101977.31;;;11.24;95.64
45813;BME280;31519;45.408;10.962;2023-01-25T00:11:48;101970.94;;;11.15;96.37
45813;BME280;31519;45.408;10.962;2023-01-25T00:14:17;101963.25;;;11.03;96.96
45813;BME280;31519;45.408;10.962;2023-01-25T00:16:45;101971.28;;;10.93;97.72
45813;BME280;31519;45.408;10.962;2023-01-25T00:19:13;101968.56;;;11.13;95.96
45813;BME280;31519;45.408;10.962;2023-01-25T00:21:41;101967.47;;;11.19;95.73
45813;BME280;31519;45.408;10.962;2023-01-25T00:24:10;101962.16;;;11.14;96.10
45813;BME280;31519;45.408;10.962;2023-01-25T00:26:41;101957.38;;;11.06;96.27
45813;BME280;31519;45.408;10.962;2023-01-25T00:29:13;101954.47;;;11.02;96.00
45813;BME280;31519;45.408;10.962;2023-01-25T00:37:02;101956.34;;;10.97;95.67
45813;BME280;31519;45.408;10.962;2023-01-25T00:39:41;101956.03;;;11.14;94.98
45813;BME280;31519;45.408;10.962;2023-01-25T00:42:13;101960.25;;;11.25;92.24
45813;BME280;31519;45.408;10.962;2023-01-25T00:44:45;101953.06;;;11.25;92.22
45813;BME280;31519;45.408;10.962;2023-01-25T00:47:14;101955.94;;;11.34;91.36
45813;BME280;31519;45.408;10.962;2023-01-25T00:49:44;101952.28;;;11.20;90.93
45813;BME280;31519;45.408;10.962;2023-01-25T00:52:13;101945.84;;;11.26;91.06
45813;BME280;31519;45.408;10.962;2023-01-25T00:54:42;101938.47;;;10.97;92.50
45813;BME280;31519;45.408;10.962;2023-01-25T00:57:10;101938.47;;;10.97;93.33
45813;BME280;31519;45.408;10.962;2023-01-25T00:59:38;101951.19;;;11.26;91.47
45813;BME280;31519;45.408;10.962;2023-01-25T01:02:13;101937.63;;;11.17;91.43
45813;BME280;31519;45.408;10.962;2023-01-25T01:04:41;101939.78;;;11.05;92.46
45813;BME280;31519;45.408;10.962;2023-01-25T01:07:13;101941.13;;;11.07;92.33
45813;BME280;31519;45.408;10.962;2023-01-25T01:09:42;101938.72;;;11.06;92.67
45813;BME280;31519;45.408;10.962;2023-01-25T01:12:10;101933.13;;;11.02;92.40
45813;BME280;31519;45.408;10.962;2023-01-25T01:14:38;101937.94;;;10.95;92.35
45813;BME280;31519;45.408;10.962;2023-01-25T01:17:06;101939.25;;;11.08;91.78
45813;BME280;31519;45.408;10.962;2023-01-25T01:19:35;101936.03;;;11.06;90.58
45813;BME280;31519;45.408;10.962;2023-01-25T01:22:03;101924.59;;;11.00;90.98
45813;BME280;31519;45.408;10.962;2023-01-25T01:24:32;101920.41;;;10.79;91.06
45813;BME280;31519;45.408;10.962;2023-01-25T01:27:00;101914.22;;;10.94;90.43
45813;BME280;31519;45.408;10.962;2023-01-25T01:29:28;101928.88;;;10.96;90.64
45813;BME280;31519;45.408;10.962;2023-01-25T01:31:56;101920.38;;;10.84;91.34
45813;BME280;31519;45.408;10.962;2023-01-25T01:34:26;101919.31;;;10.85;90.97
45813;BME280;31519;45.408;10.962;2023-01-25T01:36:55;101929.97;;;10.90;90.66
45813;BME280;31519;45.408;10.962;2023-01-25T01:39:23;101919.81;;;10.92;91.22
45813;BME280;31519;45.408;10.962;2023-01-25T01:41:51;101927.56;;;10.94;90.52
45813;BME280;31519;45.408;10.962;2023-01-25T01:44:39;101929.09;;;11.05;89.22
45813;BME280;31519;45.408;10.962;2023-01-25T01:47:17;101931.53;;;10.96;88.59
45813;BME280;31519;45.408;10.962;2023-01-25T01:50:16;101927.78;;;11.13;87.60
45813;BME280;31519;45.408;10.962;2023-01-25T01:52:39;101924.66;;;10.80;88.88
45813;BME280;31519;45.408;10.962;2023-01-25T01:55:13;101931.06;;;10.79;89.70
45813;BME280;31519;45.408;10.962;2023-01-25T01:57:47;101923.03;;;10.99;88.13
45813;BME280;31519;45.408;10.962;2023-01-25T02:00:38;101929.44;;;10.83;88.87
45813;BME280;31519;45.408;10.962;2023-01-25T02:03:08;101922.50;;;10.92;87.57
45813;BME280;31519;45.408;10.962;2023-01-25T02:08:20;101934.19;;;11.01;86.52
45813;BME280;31519;45.408;10.962;2023-01-25T02:10:49;101929.66;;;11.02;87.71
45813;BME280;31519;45.408;10.962;2023-01-25T02:13:18;101923.50;;;11.17;85.42
45813;BME280;31519;45.408;10.962;2023-01-25T02:15:51;101924.31;;;11.02;85.71
45813;BME280;31519;45.408;10.962;2023-01-25T02:18:20;101932.28;;;11.22;85.30
45813;BME280;31519;45.408;10.962;2023-01-25T02:20:51;101927.97;;;11.26;84.64
45813;BME280;31519;45.408;10.962;2023-01-25T02:26:00;101932.31;;;11.02;87.92
45813;BME280;31519;45.408;10.962;2023-01-25T02:28:34;101924.91;;;10.94;87.76
45813;BME280;31519;45.408;10.962;2023-01-25T02:31:04;101918.22;;;10.91;87.90
45813;BME280;31519;45.408;10.962;2023-01-25T02:33:32;101922.75;;;10.91;87.55
45813;BME280;31519;45.408;10.962;2023-01-25T02:38:37;101916.28;;;11.17;87.03
45813;BME280;31519;45.408;10.962;2023-01-25T02:41:09;101923.75;;;11.15;87.53
45813;BME280;31519;45.408;10.962;2023-01-25T02:43:40;101923.19;;;11.23;87.55
45813;BME280;31519;45.408;10.962;2023-01-25T02:46:14;101933.38;;;11.11;88.45
45813;BME280;31519;45.408;10.962;2023-01-25T02:48:44;101933.88;;;11.18;88.23
45813;BME280;31519;45.408;10.962;2023-01-25T02:51:13;101938.22;;;10.99;88.72
45813;BME280;31519;45.408;10.962;2023-01-25T02:53:41;101931.44;;;11.27;87.15
45813;BME280;31519;45.408;10.962;2023-01-25T02:56:10;101936.03;;;11.11;87.45
45813;BME280;31519;45.408;10.962;2023-01-25T02:58:38;101925.94;;;11.03;88.53
45813;BME280;31519;45.408;10.962;2023-01-25T03:01:06;101931.84;;;10.80;89.07
45813;BME280;31519;45.408;10.962;2023-01-25T03:03:34;101929.88;;;11.21;88.24
45813;BME280;31519;45.408;10.962;2023-01-25T03:06:04;101930.44;;;11.07;88.98
45813;BME280;31519;45.408;10.962;2023-01-25T03:08:33;101926.50;;;10.90;89.47
45813;BME280;31519;45.408;10.962;2023-01-25T03:11:04;101923.03;;;10.94;89.92
45813;BME280;31519;45.408;10.962;2023-01-25T03:13:34;101912.84;;;11.06;89.82
45813;BME280;31519;45.408;10.962;2023-01-25T03:16:07;101913.44;;;10.88;90.35
45813;BME280;31519;45.408;10.962;2023-01-25T03:18:39;101896.72;;;10.62;90.64
45813;BME280;31519;45.408;10.962;2023-01-25T03:21:10;101901.25;;;10.62;91.85
45813;BME280;31519;45.408;10.962;2023-01-25T03:23:39;101902.56;;;10.64;91.64
45813;BME280;31519;45.408;10.962;2023-01-25T03:26:18;101900.47;;;10.56;91.67
45813;BME280;31519;45.408;10.962;2023-01-25T03:29:07;101908.69;;;10.65;91.71
45813;BME280;31519;45.408;10.962;2023-01-25T03:31:39;101911.38;;;10.55;92.53
45813;BME280;31519;45.408;10.962;2023-01-25T03:34:09;101904.16;;;10.71;92.38
45813;BME280;31519;45.408;10.962;2023-01-25T03:36:42;101907.38;;;10.57;92.25
45813;BME280;31519;45.408;10.962;2023-01-25T03:39:10;101907.63;;;10.66;91.78
45813;BME280;31519;45.408;10.962;2023-01-25T03:41:42;101907.66;;;10.61;92.37
45813;BME280;31519;45.408;10.962;2023-01-25T03:44:12;101908.19;;;10.43;92.70
45813;BME280;31519;45.408;10.962;2023-01-25T03:46:43;101906.88;;;10.35;93.09
45813;BME280;31519;45.408;10.962;2023-01-25T03:49:11;101895.19;;;10.26;93.89
45813;BME280;31519;45.408;10.962;2023-01-25T03:51:40;101898.09;;;10.25;94.02
45813;BME280;31519;45.408;10.962;2023-01-25T03:54:08;101894.88;;;10.48;93.12
45813;BME280;31519;45.408;10.962;2023-01-25T03:56:38;101902.38;;;10.36;93.17
45813;BME280;31519;45.408;10.962;2023-01-25T03:59:25;101897.03;;;10.36;92.87
45813;BME280;31519;45.408;10.962;2023-01-25T04:01:54;101887.69;;;10.28;93.48
45813;BME280;31519;45.408;10.962;2023-01-25T04:04:22;101893.03;;;10.38;93.92
45813;BME280;31519;45.408;10.962;2023-01-25T04:06:52;101898.91;;;10.40;94.35
45813;BME280;31519;45.408;10.962;2023-01-25T04:09:23;101887.69;;;10.33;93.90
45813;BME280;31519;45.408;10.962;2023-01-25T04:11:54;101892.47;;;10.41;93.41
45813;BME280;31519;45.408;10.962;2023-01-25T04:14:22;101884.50;;;10.36;93.50
45813;BME280;31519;45.408;10.962;2023-01-25T04:17:13;101885.84;;;10.39;93.64
45813;BME280;31519;45.408;10.962;2023-01-25T04:19:48;101885.56;;;10.15;95.04
45813;BME280;31519;45.408;10.962;2023-01-25T04:22:20;101889.03;;;10.15;95.05
45813;BME280;31519;45.408;10.962;2023-01-25T04:24:50;101888.75;;;10.22;95.65
45813;BME280;31519;45.408;10.962;2023-01-25T04:27:18;101889.84;;;10.16;96.20
45813;BME280;31519;45.408;10.962;2023-01-25T04:29:59;101884.50;;;10.11;96.69
45813;BME280;31519;45.408;10.962;2023-01-25T04:32:28;101883.97;;;10.24;96.37
45813;BME280;31519;45.408;10.962;2023-01-25T04:34:58;101879.16;;;10.06;96.95
45813;BME280;31519;45.408;10.962;2023-01-25T04:37:28;101891.41;;;10.07;97.75
45813;BME280;31519;45.408;10.962;2023-01-25T04:39:58;101892.22;;;10.28;96.90
45813;BME280;31519;45.408;10.962;2023-01-25T04:42:31;101903.94;;;10.42;96.11
45813;BME280;31519;45.408;10.962;2023-01-25T04:44:59;101894.63;;;10.39;96.06
45813;BME280;31519;45.408;10.962;2023-01-25T04:47:27;101894.09;;;10.27;96.31
45813;BME280;31519;45.408;10.962;2023-01-25T04:49:55;101895.44;;;10.30;96.41
45813;BME280;31519;45.408;10.962;2023-01-25T04:52:28;101888.25;;;10.30;95.91
45813;BME280;31519;45.408;10.962;2023-01-25T04:54:55;101877.25;;;10.67;95.09
45813;BME280;31519;45.408;10.962;2023-01-25T04:57:24;101874.38;;;10.48;95.70
45813;BME280;31519;45.408;10.962;2023-01-25T04:59:52;101873.81;;;10.51;95.07
45813;BME280;31519;45.408;10.962;2023-01-25T05:02:23;101876.25;;;10.38;95.39
45813;BME280;31519;45.408;10.962;2023-01-25T05:04:52;101885.28;;;10.52;95.14
45813;BME280;31519;45.408;10.962;2023-01-25T05:07:21;101875.41;;;10.57;95.05
45813;BME280;31519;45.408;10.962;2023-01-25T05:09:49;101877.28;;;10.42;96.33
45813;BME280;31519;45.408;10.962;2023-01-25T05:12:19;101874.63;;;10.42;95.12
45813;BME280;31519;45.408;10.962;2023-01-25T05:14:58;101875.16;;;10.49;95.81
45813;BME280;31519;45.408;10.962;2023-01-25T05:17:26;101880.22;;;10.45;95.59
45813;BME280;31519;45.408;10.962;2023-01-25T05:19:55;101880.50;;;10.54;94.08
45813;BME280;31519;45.408;10.962;2023-01-25T05:22:24;101873.31;;;10.39;94.54
45813;BME280;31519;45.408;10.962;2023-01-25T05:24:53;101878.66;;;10.29;95.40
45813;BME280;31519;45.408;10.962;2023-01-25T05:27:22;101880.50;;;10.23;96.20
45813;BME280;31519;45.408;10.962;2023-01-25T05:29:53;101870.66;;;10.24;96.09
45813;BME280;31519;45.408;10.962;2023-01-25T05:32:36;101879.47;;;10.19;96.12
45813;BME280;31519;45.408;10.962;2023-01-25T05:35:06;101880.50;;;10.29;96.11
45813;BME280;31519;45.408;10.962;2023-01-25T05:37:35;101877.03;;;10.43;94.99
45813;BME280;31519;45.408;10.962;2023-01-25T05:40:10;101874.38;;;10.23;95.75
45813;BME280;31519;45.408;10.962;2023-01-25T05:42:39;101878.34;;;10.51;95.17
45813;BME280;31519;45.408;10.962;2023-01-25T05:45:15;101874.94;;;10.35;94.90
45813;BME280;31519;45.408;10.962;2023-01-25T05:47:46;101875.72;;;10.31;94.71
45813;BME280;31519;45.408;10.962;2023-01-25T05:50:14;101867.19;;;10.23;95.31
45813;BME280;31519;45.408;10.962;2023-01-25T05:53:01;101867.75;;;10.36;93.47
45813;BME280;31519;45.408;10.962;2023-01-25T05:55:29;101860.81;;;10.40;93.27
45813;BME280;31519;45.408;10.962;2023-01-25T05:58:04;101860.56;;;10.21;93.39
45813;BME280;31519;45.408;10.962;2023-01-25T06:00:32;101860.00;;;10.19;94.50
45813;BME280;31519;45.408;10.962;2023-01-25T06:03:00;101858.69;;;10.21;94.44
45813;BME280;31519;45.408;10.962;2023-01-25T06:05:31;101853.63;;;10.35;95.02
45813;BME280;31519;45.408;10.962;2023-01-25T06:07:59;101846.69;;;10.19;95.17
45813;BME280;31519;45.408;10.962;2023-01-25T06:10:42;101858.13;;;10.09;95.12
45813;BME280;31519;45.408;10.962;2023-01-25T06:13:10;101855.47;;;10.14;95.15
45813;BME280;31519;45.408;10.962;2023-01-25T06:15:38;101854.41;;;10.05;95.16
45813;BME280;31519;45.408;10.962;2023-01-25T06:18:43;101853.06;;;10.13;95.31
45813;BME280;31519;45.408;10.962;2023-01-25T06:21:26;101853.09;;;10.18;95.15
45813;BME280;31519;45.408;10.962;2023-01-25T06:23:54;101861.31;;;10.32;94.42
45813;BME280;31519;45.408;10.962;2023-01-25T06:26:22;101858.41;;;10.28;95.08
45813;BME280;31519;45.408;10.962;2023-01-25T06:28:50;101856.25;;;10.45;93.34
45813;BME280;31519;45.408;10.962;2023-01-25T06:31:19;101859.22;;;10.18;93.10
45813;BME280;31519;45.408;10.962;2023-01-25T06:33:49;101865.03;;;10.00;92.98
45813;BME280;31519;45.408;10.962;2023-01-25T06:36:21;101856.00;;;9.96;92.93
45813;BME280;31519;45.408;10.962;2023-01-25T06:38:50;101865.88;;;10.16;92.01
45813;BME280;31519;45.408;10.962;2023-01-25T06:41:19;101858.13;;;10.14;91.68
45813;BME280;31519;45.408;10.962;2023-01-25T06:43:51;101855.75;;;10.08;92.22
45813;BME280;31519;45.408;10.962;2023-01-25T06:46:19;101857.06;;;10.00;92.54
45813;BME280;31519;45.408;10.962;2023-01-25T06:48:49;101855.75;;;10.03;93.44
45813;BME280;31519;45.408;10.962;2023-01-25T06:51:17;101859.72;;;9.95;93.45
45813;BME280;31519;45.408;10.962;2023-01-25T06:53:45;101857.88;;;10.06;93.14
45813;BME280;31519;45.408;10.962;2023-01-25T06:56:18;101858.41;;;10.03;93.36
45813;BME280;31519;45.408;10.962;2023-01-25T06:58:48;101855.47;;;9.99;93.71
45813;BME280;31519;45.408;10.962;2023-01-25T07:01:24;101845.63;;;9.90;93.64
45813;BME280;31519;45.408;10.962;2023-01-25T07:03:58;101842.94;;;10.05;92.78
45813;BME280;31519;45.408;10.962;2023-01-25T07:06:30;101844.81;;;10.04;92.12
45813;BME280;31519;45.408;10.962;2023-01-25T07:09:04;101851.19;;;10.13;92.81
45813;BME280;31519;45.408;10.962;2023-01-25T07:11:33;101848.28;;;10.10;92.27
45813;BME280;31519;45.408;10.962;2023-01-25T07:14:02;101851.78;;;10.15;92.14
45813;BME280;31519;45.408;10.962;2023-01-25T07:16:30;101848.56;;;10.18;91.77
45813;BME280;31519;45.408;10.962;2023-01-25T07:19:09;101842.13;;;10.50;90.97
45813;BME280;31519;45.408;10.962;2023-01-25T07:21:39;101851.22;;;10.39;90.11
45813;BME280;31519;45.408;10.962;2023-01-25T07:24:12;101838.13;;;10.57;90.19
45813;BME280;31519;45.408;10.962;2023-01-25T07:26:40;101838.38;;;10.56;90.32
45813;BME280;31519;45.408;10.962;2023-01-25T07:29:12;101840.81;;;10.47;90.69
45813;BME280;31519;45.408;10.962;2023-01-25T07:31:41;101841.03;;;10.61;88.86
45813;BME280;31519;45.408;10.962;2023-01-25T07:34:11;101848.94;;;10.86;85.03
45813;BME280;31519;45.408;10.962;2023-01-25T07:36:40;101843.25;;;11.08;81.17
45813;BME280;31519;45.408;10.962;2023-01-25T07:39:10;101832.75;;;11.27;80.31
45813;BME280;31519;45.408;10.962;2023-01-25T07:41:39;101836.28;;;11.17;77.68
45813;BME280;31519;45.408;10.962;2023-01-25T07:44:12;101838.81;;;11.37;77.64
45813;BME280;31519;45.408;10.962;2023-01-25T07:46:45;101834.69;;;12.28;73.17
45813;BME280;31519;45.408;10.962;2023-01-25T07:49:14;101838.09;;;12.57;69.99
45813;BME280;31519;45.408;10.962;2023-01-25T07:51:42;101844.06;;;12.49;70.27
45813;BME280;31519;45.408;10.962;2023-01-25T07:54:11;101839.31;;;12.17;71.16
45813;BME280;31519;45.408;10.962;2023-01-25T07:56:39;101829.22;;;11.80;70.96
45813;BME280;31519;45.408;10.962;2023-01-25T07:59:08;101834.41;;;12.01;71.17
45813;BME280;31519;45.408;10.962;2023-01-25T08:01:38;101838.88;;;11.71;69.30
45813;BME280;31519;45.408;10.962;2023-01-25T08:04:06;101835.16;;;11.72;69.12
45813;BME280;31519;45.408;10.962;2023-01-25T08:06:36;101836.63;;;11.88;68.68
45813;BME280;31519;45.408;10.962;2023-01-25T08:09:12;101843.97;;;11.68;69.18
45813;BME280;31519;45.408;10.962;2023-01-25T08:11:41;101848.50;;;11.72;69.46
45813;BME280;31519;45.408;10.962;2023-01-25T08:14:09;101848.47;;;11.77;68.51
45813;BME280;31519;45.408;10.962;2023-01-25T08:16:37;101851.03;;;11.87;72.46
45813;BME280;31519;45.408;10.962;2023-01-25T08:19:06;101845.00;;;11.28;79.13
45813;BME280;31519;45.408;10.962;2023-01-25T08:21:34;101843.50;;;11.55;80.35
45813;BME280;31519;45.408;10.962;2023-01-25T08:24:05;101844.19;;;11.32;82.28
45813;BME280;31519;45.408;10.962;2023-01-25T08:26:34;101834.69;;;11.16;83.31
45813;BME280;31519;45.408;10.962;2023-01-25T08:29:05;101835.16;;;11.23;83.88
45813;BME280;31519;45.408;10.962;2023-01-25T08:31:34;101834.69;;;11.55;82.96
45813;BME280;31519;45.408;10.962;2023-01-25T08:34:03;101835.06;;;11.82;81.75
45813;BME280;31519;45.408;10.962;2023-01-25T08:36:31;101828.06;;;11.52;83.42
45813;BME280;31519;45.408;10.962;2023-01-25T08:39:05;101831.56;;;11.48;83.30
45813;BME280;31519;45.408;10.962;2023-01-25T08:41:34;101833.56;;;11.66;82.73
45813;BME280;31519;45.408;10.962;2023-01-25T08:44:03;101823.88;;;11.80;82.46
45813;BME280;31519;45.408;10.962;2023-01-25T08:46:32;101820.91;;;11.87;82.80
45813;BME280;31519;45.408;10.962;2023-01-25T08:49:01;101825.31;;;11.63;84.06
45813;BME280;31519;45.408;10.962;2023-01-25T08:51:31;101819.66;;;11.69;84.17
45813;BME280;31519;45.408;10.962;2023-01-25T08:54:04;101814.75;;;11.86;83.81
45813;BME280;31519;45.408;10.962;2023-01-25T08:56:35;101810.03;;;11.73;84.66
45813;BME280;31519;45.408;10.962;2023-01-25T08:59:03;101820.44;;;11.75;84.32
45813;BME280;31519;45.408;10.962;2023-01-25T09:01:33;101815.06;;;11.80;84.27
45813;BME280;31519;45.408;10.962;2023-01-25T09:04:01;101815.28;;;11.83;83.87
45813;BME280;31519;45.408;10.962;2023-01-25T09:06:29;101810.56;;;11.75;83.53
45813;BME280;31519;45.408;10.962;2023-01-25T09:08:58;101812.97;;;11.72;81.75
45813;BME280;31519;45.408;10.962;2023-01-25T09:11:27;101813.63;;;11.92;81.24
45813;BME280;31519;45.408;10.962;2023-01-25T09:13:55;101811.94;;;11.73;81.36
45813;BME280;31519;45.408;10.962;2023-01-25T09:16:24;101819.00;;;11.87;81.90
45813;BME280;31519;45.408;10.962;2023-01-25T09:19:01;101810.22;;;11.87;82.05
45813;BME280;31519;45.408;10.962;2023-01-25T09:21:31;101806.00;;;11.81;82.44
45813;BME280;31519;45.408;10.962;2023-01-25T09:24:00;101820.19;;;11.76;81.79
45813;BME280;31519;45.408;10.962;2023-01-25T09:26:39;101819.97;;;11.63;82.18
45813;BME280;31519;45.408;10.962;2023-01-25T09:29:11;101821.63;;;11.92;80.68
45813;BME280;31519;45.408;10.962;2023-01-25T09:31:39;101824.03;;;11.94;79.76
45813;BME280;31519;45.408;10.962;2023-01-25T09:34:21;101812.25;;;11.61;81.73
45813;BME280;31519;45.408;10.962;2023-01-25T09:36:49;101820.59;;;11.54;82.98
45813;BME280;31519;45.408;10.962;2023-01-25T09:39:18;101811.75;;;11.59;82.92
45813;BME280;31519;45.408;10.962;2023-01-25T09:48:17;101813.13;;;11.90;82.44
45813;BME280;31519;45.408;10.962;2023-01-25T09:51:21;101813.88;;;11.96;81.81
45813;BME280;31519;45.408;10.962;2023-01-25T09:53:53;101812.84;;;12.44;79.83
45813;BME280;31519;45.408;10.962;2023-01-25T09:56:28;101808.81;;;12.71;78.75
45813;BME280;31519;45.408;10.962;2023-01-25T09:59:04;101799.50;;;12.68;78.80
45813;BME280;31519;45.408;10.962;2023-01-25T10:04:16;101806.25;;;12.37;79.25
45813;BME280;31519;45.408;10.962;2023-01-25T10:06:51;101797.03;;;12.72;77.47
45813;BME280;31519;45.408;10.962;2023-01-25T10:09:44;101794.78;;;13.21;75.60
45813;BME280;31519;45.408;10.962;2023-01-25T10:12:20;101793.88;;;13.63;71.35
45813;BME280;31519;45.408;10.962;2023-01-25T10:14:49;101792.81;;;13.64;70.84
45813;BME280;31519;45.408;10.962;2023-01-25T10:17:25;101789.44;;;13.72;69.82
45813;BME280;31519;45.408;10.962;2023-01-25T10:25:39;101770.72;;;15.67;64.94
45813;BME280;31519;45.408;10.962;2023-01-25T10:30:54;101750.97;;;15.49;61.58
45813;BME280;31519;45.408;10.962;2023-01-25T10:33:26;101762.00;;;14.90;61.69
45813;BME280;31519;45.408;10.962;2023-01-25T10:35:55;101752.03;;;14.54;62.36
45813;BME280;31519;45.408;10.962;2023-01-25T10:38:31;101751.66;;;14.47;63.79
45813;BME280;31519;45.408;10.962;2023-01-25T10:41:16;101744.31;;;14.39;63.92
45813;BME280;31519;45.408;10.962;2023-01-25T10:43:45;101739.03;;;14.20;63.96
45813;BME280;31519;45.408;10.962;2023-01-25T10:46:24;101731.19;;;14.24;63.68
45813;BME280;31519;45.408;10.962;2023-01-25T10:48:54;101731.00;;;14.34;63.62
45813;BME280;31519;45.408;10.962;2023-01-25T10:51:30;101730.13;;;14.25;63.89
45813;BME280;31519;45.408;10.962;2023-01-25T10:54:01;101723.72;;;14.21;63.83
45813;BME280;31519;45.408;10.962;2023-01-25T10:56:33;101709.94;;;14.14;64.56
45813;BME280;31519;45.408;10.962;2023-01-25T10:59:14;101709.25;;;14.08;64.34
45813;BME280;31519;45.408;10.962;2023-01-25T11:01:44;101710.13;;;14.31;61.61
45813;BME280;31519;45.408;10.962;2023-01-25T11:04:33;101706.38;;;14.18;62.59
45813;BME280;31519;45.408;10.962;2023-01-25T11:07:03;101694.56;;;14.06;63.43
45813;BME280;31519;45.408;10.962;2023-01-25T11:09:35;101689.00;;;13.89;62.38
45813;BME280;31519;45.408;10.962;2023-01-25T11:14:38;101689.97;;;13.65;62.19
45813;BME280;31519;45.408;10.962;2023-01-25T11:17:21;101678.63;;;13.41;63.15
45813;BME280;31519;45.408;10.962;2023-01-25T11:20:14;101675.47;;;13.66;62.54
45813;BME280;31519;45.408;10.962;2023-01-25T11:22:54;101671.66;;;13.86;56.32
45813;BME280;31519;45.408;10.962;2023-01-25T11:25:33;101670.41;;;13.51;58.05
45813;BME280;31519;45.408;10.962;2023-01-25T11:28:14;101663.88;;;13.71;57.23
45813;BME280;31519;45.408;10.962;2023-01-25T11:30:44;101658.56;;;13.39;56.15
45813;BME280;31519;45.408;10.962;2023-01-25T11:33:15;101653.78;;;13.82;55.96
45813;BME280;31519;45.408;10.962;2023-01-25T11:36:02;101654.38;;;14.06;54.95
45813;BME280;31519;45.408;10.962;2023-01-25T11:38:33;101635.81;;;14.37;55.24
45813;BME280;31519;45.408;10.962;2023-01-25T11:50:00;101618.38;;;14.84;51.18
45813;BME280;31519;45.408;10.962;2023-01-25T12:07:02;101583.16;;;18.21;42.35
45813;BME280;31519;45.408;10.962;2023-01-25T12:09:47;101581.44;;;18.78;41.16
45813;BME280;31519;45.408;10.962;2023-01-25T12:16:08;101571.78;;;18.77;40.73
45813;BME280;31519;45.408;10.962;2023-01-25T12:21:53;101552.84;;;19.34;39.25
45813;BME280;31519;45.408;10.962;2023-01-25T12:25:12;101546.00;;;19.73;39.37
45813;BME280;31519;45.408;10.962;2023-01-25T12:30:44;101544.81;;;17.36;41.16
45813;BME280;31519;45.408;10.962;2023-01-25T12:43:51;101523.34;;;18.39;39.58
45813;BME280;31519;45.408;10.962;2023-01-25T12:46:27;101519.06;;;19.77;39.04
45813;BME280;31519;45.408;10.962;2023-01-25T12:49:05;101514.31;;;19.98;37.72
45813;BME280;31519;45.408;10.962;2023-01-25T12:51:39;101513.91;;;20.52;36.62
45813;BME280;31519;45.408;10.962;2023-01-25T12:54:30;101506.38;;;20.05;36.48
45813;BME280;31519;45.408;10.962;2023-01-25T12:57:14;101510.63;;;19.30;37.25
45813;BME280;31519;45.408;10.962;2023-01-25T13:05:34;101499.63;;;19.23;38.63
45813;BME280;31519;45.408;10.962;2023-01-25T13:13:39;101485.13;;;19.91;36.83
45813;BME280;31519;45.408;10.962;2023-01-25T13:18:58;101484.97;;;20.40;35.40
45813;BME280;31519;45.408;10.962;2023-01-25T13:35:00;101472.50;;;19.43;33.83
45813;BME280;31519;45.408;10.962;2023-01-25T13:37:32;101472.91;;;19.70;34.62
45813;BME280;31519;45.408;10.962;2023-01-25T13:40:03;101466.00;;;20.12;34.30
45813;BME280;31519;45.408;10.962;2023-01-25T13:42:35;101468.31;;;20.26;33.86
45813;BME280;31519;45.408;10.962;2023-01-25T13:45:13;101469.03;;;20.98;33.33
45813;BME280;31519;45.408;10.962;2023-01-25T13:47:44;101470.88;;;20.94;33.39
45813;BME280;31519;45.408;10.962;2023-01-25T13:50:26;101460.84;;;19.67;33.79
45813;BME280;31519;45.408;10.962;2023-01-25T13:53:02;101462.84;;;20.66;33.05
45813;BME280;31519;45.408;10.962;2023-01-25T13:55:39;101463.28;;;21.15;32.61
45813;BME280;31519;45.408;10.962;2023-01-25T14:00:59;101466.91;;;19.76;33.66
45813;BME280;31519;45.408;10.962;2023-01-25T14:03:41;101466.25;;;20.35;33.57
45813;BME280;31519;45.408;10.962;2023-01-25T14:06:16;101465.03;;;21.07;32.40
45813;BME280;31519;45.408;10.962;2023-01-25T14:08:45;101454.59;;;20.19;34.20
45813;BME280;31519;45.408;10.962;2023-01-25T14:11:28;101452.69;;;19.15;34.17
45813;BME280;31519;45.408;10.962;2023-01-25T14:14:15;101459.88;;;19.60;34.60
45813;BME280;31519;45.408;10.962;2023-01-25T14:16:44;101453.72;;;19.87;33.84
45813;BME280;31519;45.408;10.962;2023-01-25T14:19:24;101455.91;;;19.57;33.28
45813;BME280;31519;45.408;10.962;2023-01-25T14:30:24;101444.81;;;18.08;36.28
45813;BME280;31519;45.408;10.962;2023-01-25T14:32:57;101444.56;;;17.80;37.23
45813;BME280;31519;45.408;10.962;2023-01-25T14:38:36;101454.59;;;19.02;35.05
45813;BME280;31519;45.408;10.962;2023-01-25T14:41:21;101456.75;;;16.98;36.92
45813;BME280;31519;45.408;10.962;2023-01-25T14:43:54;101445.69;;;17.00;37.59
45813;BME280;31519;45.408;10.962;2023-01-25T14:46:31;101454.56;;;16.92;37.96
45813;BME280;31519;45.408;10.962;2023-01-25T14:52:06;101433.84;;;20.66;32.20
45813;BME280;31519;45.408;10.962;2023-01-25T14:57:32;101434.75;;;19.59;32.68
45813;BME280;31519;45.408;10.962;2023-01-25T15:00:16;101440.16;;;18.62;34.71
45813;BME280;31519;45.408;10.962;2023-01-25T15:02:55;101430.94;;;18.63;35.09
45813;BME280;31519;45.408;10.962;2023-01-25T15:05:35;101434.09;;;19.90;32.67
45813;BME280;31519;45.408;10.962;2023-01-25T15:10:36;101428.66;;;22.17;29.96
45813;BME280;31519;45.408;10.962;2023-01-25T15:15:58;101427.63;;;19.79;32.74
45813;BME280;31519;45.408;10.962;2023-01-25T15:18:46;101429.88;;;17.69;35.54